Latest Coastal Weather Observations for Cape Naturaliste

IDW60701

Issued at 8:52 pm WST Friday 7 October 2022 (issued every 10 minutes, with the page automatically refreshed every 10 minutes)

About coastal observations | Map of coastal stations | Coastal observations for WA | Marine services | Other Formats
Station Details ID: 009519 Name: CAPE NATURALISTE Lat: -33.54 Lon: 115.02 Height: 109.0 m
Data from the previous 72 hours. | See also: Recent months at Cape Naturaliste
Date/Time
WST
Wind Sea
Height
m
Swell Vis
km
Cloud Weather Temp
°C
Press
MSL
hPa
Rain since
9am
mm
Dir  Spd
kts
Gust
kts
Height
m
Period
s
Dir
07/08:30pm WSW 8 11 - - - - - - - 11.8 1024.0 0.0
07/08:00pm WSW 8 11 - - - - - - - 12.0 1023.7 0.0
07/07:30pm WSW 8 11 - - - - - - - 12.0 1023.6 0.0
07/07:00pm WSW 9 11 - - - - - - - 12.2 1023.5 0.0
07/06:30pm W 8 11 - - - - - - - 12.4 1023.4 0.0
07/06:00pm W 8 10 - - - - - - - 13.8 1023.1 0.0
07/05:30pm W 8 10 - - - - - - - 14.9 1022.9 0.0
07/05:00pm WNW 7 9 - - - - - - - 15.9 1022.9 0.0
07/04:30pm WNW 7 11 - - - - - - - 16.2 1023.0 0.0
07/04:00pm W 7 10 - - - - - - - 16.7 1022.9 0.0
07/03:30pm NW 8 10 - - - - - - - 17.0 1023.0 0.0
07/03:00pm NNW 8 11 - - - - - - - 17.3 1023.1 0.0
07/02:30pm NNW 8 11 - - - - - - - 17.5 1023.3 0.0
07/02:00pm NNW 8 10 - - - - - - - 17.4 1023.5 0.0
07/01:30pm NNW 9 11 - - - - - - - 17.8 1023.8 0.0
07/01:00pm NNW 8 11 - - - - - - - 17.5 1024.1 0.0
07/12:30pm N 7 9 - - - - - - - 17.3 1024.4 0.0
07/12:00pm N 7 10 - - - - - - - 17.4 1024.5 0.0
07/11:30am NNE 7 10 - - - - - - - 15.9 1024.9 0.0
07/11:00am NE 7 11 - - - - - - - 15.7 1024.9 0.0
07/10:30am NE 8 11 - - - - - - - 17.2 1025.2 0.0
07/10:00am NE 7 10 - - - - - - - 16.7 1025.3 0.0
07/09:30am NE 8 11 - - - - - - - 16.2 1025.3 0.0
07/09:00am ENE 7 11 - - - - - - - 15.3 1025.2 5.4
07/08:30am E 7 9 - - - - - - - 14.9 1025.0 5.4
07/08:00am ENE 6 8 - - - - - - - 14.2 1024.8 5.4
07/07:30am E 5 7 - - - - - - - 13.2 1024.6 5.4
07/07:00am ESE 5 5 - - - - - - - 12.0 1024.4 5.4
07/06:30am ESE 6 7 - - - - - - - 9.7 1023.8 5.4
07/06:00am ESE 6 6 - - - - - - - 8.5 1023.4 5.4
07/05:30am ESE 3 4 - - - - - - - 9.2 1023.4 5.4
07/05:00am SE 5 5 - - - - - - - 8.3 1022.9 5.4
07/04:30am SE 6 7 - - - - - - - 7.7 1022.5 5.4
07/04:00am SE 4 5 - - - - - - - 8.6 1022.4 5.4
07/03:30am SE 6 6 - - - - - - - 9.1 1022.3 5.4
07/03:00am SE 5 6 - - - - - - - 9.1 1022.3 5.4
07/02:30am SE 7 8 - - - - - - - 8.8 1022.2 5.4
07/02:00am SE 7 8 - - - - - - - 8.5 1022.1 5.4
07/01:30am SE 7 8 - - - - - - - 8.8 1022.3 5.4
07/01:00am SE 8 10 - - - - - - - 9.2 1022.4 5.4
07/12:30am SSE 10 11 - - - - - - - 9.1 1022.4 5.4
07/12:00am SE 9 13 - - - - - - - 9.2 1022.5 5.4
 
Date/Time
WST
Wind Sea
Height
m
Swell Vis
km
Cloud Weather Temp
°C
Press
MSL
hPa
Rain since
9am
mm
Dir  Spd
kts
Gust
kts
Height
m
Period
s
Dir
06/11:30pm SSE 10 12 - - - - - - - 9.4 1022.5 5.4
06/11:00pm SSE 10 11 - - - - - - - 9.8 1022.6 5.4
06/10:30pm SSE 9 11 - - - - - - - 9.2 1022.6 5.4
06/10:00pm SSE 10 11 - - - - - - - 9.3 1022.7 5.4
06/09:30pm SSE 9 11 - - - - - - - 9.3 1022.9 5.4
06/09:00pm SSE 9 10 - - - - - - Recent precip. 9.4 1022.9 5.4
06/08:30pm SSE 7 9 - - - - - - - 10.1 1022.9 5.4
06/08:00pm SSE 10 14 - - - - - - - 10.2 1022.7 5.2
06/07:30pm SSE 9 11 - - - - - - - 10.3 1022.2 5.2
06/07:00pm SSE 9 13 - - - - - - - 10.6 1022.1 5.2
06/06:30pm SSW 11 16 - - - - - - - 11.0 1021.9 5.2
06/06:00pm SSW 6 9 - - - - - - - 11.0 1021.8 5.2
06/05:30pm SSW 12 16 - - - - - - - 11.2 1021.5 5.2
06/05:00pm SSW 15 22 - - - - - - - 11.1 1021.5 5.2
06/04:46pm SSW 15 25 - - - - - - - 12.3 1021.2 4.4
06/04:30pm SSW 11 16 - - - - - - - 12.6 1021.1 4.4
06/04:00pm SSW 14 22 - - - - - - - 12.3 1020.7 4.4
06/03:30pm SSW 13 17 - - - - - - - 11.6 1020.8 4.4
06/03:05pm SSW 16 26 - - - - - - - 11.9 1020.5 3.2
06/03:00pm SSW 16 21 - - - - - - Recent precip. 12.1 1020.5 3.0
06/02:30pm SSW 11 16 - - - - - - - 12.5 1020.5 3.0
06/02:00pm WSW 17 23 - - - - - - - 12.7 1020.9 1.8
06/01:30pm SSW 13 19 - - - - - - - 16.4 1020.9 1.8
06/01:00pm SW 15 22 - - - - - - - 15.7 1021.0 1.8
06/12:30pm SW 15 20 - - - - - - - 14.7 1021.2 1.8
06/12:00pm SW 14 21 - - - - - - Recent precip. 13.4 1021.5 1.8
06/11:30am SW 15 28 - - - - - - - 11.7 1021.8 1.6
06/11:26am WSW 15 28 - - - - - - - 12.3 1021.7 1.0
06/11:00am SW 10 14 - - - - - - - 13.9 1021.9 0.0
06/10:30am SW 18 26 - - - - - - - 14.9 1021.7 0.0
06/10:04am SSW 17 27 - - - - - - - 13.8 1021.5 0.0
06/10:00am SSW 16 23 - - - - - - - 14.0 1021.4 0.0
06/09:30am SW 14 18 - - - - - - - 15.4 1021.5 0.0
06/09:00am SSW 14 21 - - - - - - - 12.2 1021.5 1.0
06/08:30am SW 16 21 - - - - - - - 14.0 1021.0 1.0
06/08:00am SW 14 20 - - - - - - - 12.1 1020.7 1.0
06/07:30am SW 16 21 - - - - - - - 13.1 1020.4 0.6
06/07:00am WSW 16 22 - - - - - - - 12.8 1020.1 0.6
06/06:30am SW 17 22 - - - - - - - 12.7 1019.6 0.6
06/06:00am SW 15 20 - - - - - - - 12.6 1019.3 0.6
06/05:30am SW 16 22 - - - - - - - 12.1 1018.9 0.6
06/05:00am SW 15 20 - - - - - - - 12.1 1018.4 0.6
06/04:30am SW 15 21 - - - - - - - 11.4 1018.4 0.6
06/04:00am SW 17 23 - - - - - - - 11.5 1018.2 0.6
06/03:30am SSW 15 21 - - - - - - - 12.2 1017.9 0.6
06/03:00am SW 15 19 - - - - - - - 11.8 1018.1 0.6
06/02:30am SW 17 21 - - - - - - - 11.8 1018.2 0.6
06/02:00am SW 14 21 - - - - - - - 12.0 1018.2 0.6
06/01:30am SW 16 24 - - - - - - - 12.0 1018.1 0.6
06/01:00am SW 18 24 - - - - - - - 11.8 1018.0 0.6
06/12:30am WSW 20 27 - - - - - - - 11.8 1018.0 0.6
06/12:00am SW 16 23 - - - - - - - 11.7 1017.9 0.6
 
Date/Time
WST
Wind Sea
Height
m
Swell Vis
km
Cloud Weather Temp
°C
Press
MSL
hPa
Rain since
9am
mm
Dir  Spd
kts
Gust
kts
Height
m
Period
s
Dir
05/11:30pm SW 17 22 - - - - - - - 11.5 1017.9 0.6
05/11:00pm SW 15 19 - - - - - - - 11.1 1018.2 0.6
05/10:30pm SSW 14 19 - - - - - - - 10.9 1018.1 0.6
05/10:00pm SW 19 25 - - - - - - - 10.0 1018.5 0.6
05/09:39pm SSW 17 27 - - - - - - - 10.8 1017.9 0.6
05/09:30pm SSW 13 23 - - - - - - - 10.1 1018.1 0.6
05/09:00pm SSW 15 23 - - - - - - Recent precip. 10.0 1017.9 0.6
05/08:44pm SW 17 30 - - - - - - - 12.0 1017.8 0.0
05/08:30pm SW 15 22 - - - - - - - 11.8 1017.9 0.0
05/08:00pm SSW 13 18 - - - - - - - 11.3 1017.7 0.0
05/07:30pm SSW 16 26 - - - - - - - 12.0 1017.0 0.0
05/07:00pm SSW 17 27 - - - - - - - 11.3 1017.0 0.0
05/06:52pm SSW 17 27 - - - - - - - 12.1 1016.4 0.0
05/06:30pm SSW 18 24 - - - - - - - 12.0 1016.4 0.0
05/06:00pm SSW 16 22 - - - - - - - 12.4 1016.2 0.0
05/05:30pm SW 17 23 - - - - - - - 12.7 1015.7 0.0
05/05:00pm SSW 17 23 - - - - - - - 13.6 1015.4 0.0
05/04:30pm SSW 17 23 - - - - - - - 13.6 1014.9 0.0
05/04:00pm SSW 18 25 - - - - - - - 14.0 1014.6 0.0
05/03:30pm SSW 19 26 - - - - - - - 14.7 1014.3 0.0
05/03:00pm SSW 18 26 - - - - - - - 15.3 1014.1 0.0
05/02:30pm SSW 20 27 - - - - - - - 15.5 1013.8 0.0
05/02:00pm SSW 20 28 - - - - - - - 16.0 1013.4 0.0
05/01:30pm SSW 19 26 - - - - - - - 15.9 1013.2 0.0
05/01:00pm SSW 19 25 - - - - - - - 14.7 1012.9 0.0
05/12:30pm SSW 17 25 - - - - - - - 14.8 1012.9 0.0
05/12:00pm SSW 19 25 - - - - - - - 15.0 1012.7 0.0
05/11:30am SSW 17 23 - - - - - - - 15.7 1012.6 0.0
05/11:00am SSW 18 24 - - - - - - - 16.0 1012.4 0.0
05/10:30am SSW 17 25 - - - - - - - 15.9 1012.1 0.0
05/10:00am SSW 17 26 - - - - - - - 15.7 1011.9 0.0
05/09:30am SSW 16 24 - - - - - - - 14.6 1011.6 0.0
05/09:00am SSW 17 23 - - - - - - Recent precip. 13.6 1011.2 7.4
05/08:30am SSW 15 23 - - - - - - - 12.1 1010.7 7.4
05/08:00am SW 23 33 - - - - - - - 11.9 1010.2 4.4
05/07:55am SW 18 30 - - - - - - - 13.2 1010.1 3.8
05/07:30am SSW 18 25 - - - - - - - 14.0 1009.7 3.8
05/07:00am SSW 18 27 - - - - - - - 12.9 1009.2 3.8
05/06:30am SSW 19 31 - - - - - - - 12.4 1008.8 3.8
05/06:21am SW 20 31 - - - - - - - 12.5 1008.3 3.6
05/06:00am SW 17 23 - - - - - - Recent precip. 12.7 1008.1 3.4
05/05:46am SW 19 29 - - - - - - - 13.1 1007.9 3.2
05/05:30am SW 19 26 - - - - - - - 13.5 1007.6 3.2
05/05:00am SW 21 27 - - - - - - - 13.6 1007.2 3.2
05/04:30am SW 21 28 - - - - - - - 13.4 1006.8 3.2
05/04:00am SW 22 28 - - - - - - - 13.1 1006.5 3.2
05/03:30am WSW 24 30 - - - - - - - 12.9 1006.2 3.2
05/03:00am WSW 24 31 - - - - - - - 13.2 1005.9 3.2
05/02:30am WSW 24 30 - - - - - - - 13.4 1005.7 3.2
05/02:00am WSW 22 28 - - - - - - - 13.6 1005.5 3.2
05/01:30am WSW 20 25 - - - - - - - 14.1 1005.5 3.0
05/01:00am WNW 17 23 - - - - - - - 14.1 1005.9 2.2
05/12:30am NW 15 20 - - - - - - - 14.6 1005.8 1.4
05/12:00am NW 14 19 - - - - - - Recent precip. 14.2 1006.1 1.4
 
Date/Time
WST
Wind Sea
Height
m
Swell Vis
km
Cloud Weather Temp
°C
Press
MSL
hPa
Rain since
9am
mm
Dir  Spd
kts
Gust
kts
Height
m
Period
s
Dir
04/11:30pm NW 14 18 - - - - - - - 14.0 1006.7 1.4
04/11:00pm NW 15 20 - - - - - - - 14.0 1007.1 1.0
04/10:30pm WNW 16 20 - - - - - - - 14.0 1007.6 0.4
04/10:07pm W 22 32 - - - - - - - 14.8 1007.5 0.0
04/10:00pm W 23 30 - - - - - - - 15.1 1007.5 0.0
04/09:52pm WNW 18 30 - - - - - - - 16.2 1007.6 0.0
04/09:30pm NW 16 22 - - - - - - - 17.0 1007.7 0.0
04/09:00pm NW 15 21 - - - - - - - 16.8 1007.8 0.0

Other formats

Comma delimited format used in spreadsheet applications
http://www.bom.gov.au/fwo/IDW60701/IDW60701.94600.axf

JavaScript Object Notation format (JSON) in row-major order
http://www.bom.gov.au/fwo/IDW60701/IDW60701.94600.json

Data quality

Most of these data are generated automatically and are frequently updated. Quality checks on data are not normally performed. It is possible for incorrect values to appear. Refer to information at About Latest Weather Observations and please check the disclaimer before using these data.